sensor_id;sensor_type;location;lat;lon;timestamp;temperature;humidity
33741;DHT22;20065;48.380;10.892;2022-08-19T00:00:39;18.40;99.90
33741;DHT22;20065;48.380;10.892;2022-08-19T00:03:25;18.40;99.90
33741;DHT22;20065;48.380;10.892;2022-08-19T00:06:11;18.50;99.90
33741;DHT22;20065;48.380;10.892;2022-08-19T00:08:59;18.20;99.90
33741;DHT22;20065;48.380;10.892;2022-08-19T00:11:46;18.20;99.90
33741;DHT22;20065;48.380;10.892;2022-08-19T00:14:32;18.20;99.90
33741;DHT22;20065;48.380;10.892;2022-08-19T00:17:19;18.30;99.90
33741;DHT22;20065;48.380;10.892;2022-08-19T00:20:06;18.20;99.90
33741;DHT22;20065;48.380;10.892;2022-08-19T00:22:52;18.10;99.90
33741;DHT22;20065;48.380;10.892;2022-08-19T00:25:40;18.10;99.90
33741;DHT22;20065;48.380;10.892;2022-08-19T00:28:26;18.20;99.90
33741;DHT22;20065;48.380;10.892;2022-08-19T00:31:13;18.20;99.90
33741;DHT22;20065;48.380;10.892;2022-08-19T00:33:59;17.30;99.90
33741;DHT22;20065;48.380;10.892;2022-08-19T00:36:45;18.00;99.90
33741;DHT22;20065;48.380;10.892;2022-08-19T00:39:32;18.00;99.90
33741;DHT22;20065;48.380;10.892;2022-08-19T00:42:20;18.00;99.90
33741;DHT22;20065;48.380;10.892;2022-08-19T00:45:14;17.90;99.90
33741;DHT22;20065;48.380;10.892;2022-08-19T00:48:01;17.80;99.90
33741;DHT22;20065;48.380;10.892;2022-08-19T00:50:51;17.70;99.90
33741;DHT22;20065;48.380;10.892;2022-08-19T00:53:38;17.80;99.90
33741;DHT22;20065;48.380;10.892;2022-08-19T00:56:25;17.80;99.90
33741;DHT22;20065;48.380;10.892;2022-08-19T00:59:19;17.70;99.90
33741;DHT22;20065;48.380;10.892;2022-08-19T01:02:07;17.80;99.90
33741;DHT22;20065;48.380;10.892;2022-08-19T01:04:54;17.70;99.90
33741;DHT22;20065;48.380;10.892;2022-08-19T01:07:41;17.70;99.90
33741;DHT22;20065;48.380;10.892;2022-08-19T01:10:31;17.50;99.90
33741;DHT22;20065;48.380;10.892;2022-08-19T01:13:21;17.60;99.90
33741;DHT22;20065;48.380;10.892;2022-08-19T01:16:09;17.60;99.90
33741;DHT22;20065;48.380;10.892;2022-08-19T01:18:56;17.70;99.90
33741;DHT22;20065;48.380;10.892;2022-08-19T01:21:53;17.70;99.90
33741;DHT22;20065;48.380;10.892;2022-08-19T01:24:41;17.80;99.90
33741;DHT22;20065;48.380;10.892;2022-08-19T01:27:40;17.70;99.90
33741;DHT22;20065;48.380;10.892;2022-08-19T01:30:31;17.70;99.90
33741;DHT22;20065;48.380;10.892;2022-08-19T01:33:18;17.70;99.90
33741;DHT22;20065;48.380;10.892;2022-08-19T01:36:08;17.70;99.90
33741;DHT22;20065;48.380;10.892;2022-08-19T01:38:55;17.70;99.90
33741;DHT22;20065;48.380;10.892;2022-08-19T01:41:42;17.70;99.90
33741;DHT22;20065;48.380;10.892;2022-08-19T01:44:28;17.80;99.90
33741;DHT22;20065;48.380;10.892;2022-08-19T01:47:15;17.70;99.90
33741;DHT22;20065;48.380;10.892;2022-08-19T01:50:01;17.80;99.90
33741;DHT22;20065;48.380;10.892;2022-08-19T01:52:47;17.80;99.90
33741;DHT22;20065;48.380;10.892;2022-08-19T01:55:36;17.70;99.90
33741;DHT22;20065;48.380;10.892;2022-08-19T01:58:26;18.00;99.90
33741;DHT22;20065;48.380;10.892;2022-08-19T02:01:17;18.00;99.90
33741;DHT22;20065;48.380;10.892;2022-08-19T02:04:04;17.90;99.90
33741;DHT22;20065;48.380;10.892;2022-08-19T02:06:51;17.70;99.90
33741;DHT22;20065;48.380;10.892;2022-08-19T02:09:37;17.60;99.90
33741;DHT22;20065;48.380;10.892;2022-08-19T02:12:27;17.60;99.90
33741;DHT22;20065;48.380;10.892;2022-08-19T02:15:13;17.60;99.90
33741;DHT22;20065;48.380;10.892;2022-08-19T02:17:59;17.70;99.90
33741;DHT22;20065;48.380;10.892;2022-08-19T02:20:45;17.70;99.90
33741;DHT22;20065;48.380;10.892;2022-08-19T02:23:33;17.60;99.90
33741;DHT22;20065;48.380;10.892;2022-08-19T02:26:19;17.60;99.90
33741;DHT22;20065;48.380;10.892;2022-08-19T02:29:05;17.50;99.90
33741;DHT22;20065;48.380;10.892;2022-08-19T02:31:51;17.50;99.90
33741;DHT22;20065;48.380;10.892;2022-08-19T02:34:37;17.60;99.90
33741;DHT22;20065;48.380;10.892;2022-08-19T02:37:23;17.50;99.90
33741;DHT22;20065;48.380;10.892;2022-08-19T02:40:30;17.50;99.90
33741;DHT22;20065;48.380;10.892;2022-08-19T02:43:20;17.60;99.90
33741;DHT22;20065;48.380;10.892;2022-08-19T02:49:06;17.50;99.90
33741;DHT22;20065;48.380;10.892;2022-08-19T02:51:53;17.60;99.90
33741;DHT22;20065;48.380;10.892;2022-08-19T02:54:43;17.50;99.90
33741;DHT22;20065;48.380;10.892;2022-08-19T02:57:30;17.60;99.90
33741;DHT22;20065;48.380;10.892;2022-08-19T03:00:20;17.60;99.90
33741;DHT22;20065;48.380;10.892;2022-08-19T03:03:06;17.70;99.90
33741;DHT22;20065;48.380;10.892;2022-08-19T03:06:10;17.50;99.90
33741;DHT22;20065;48.380;10.892;2022-08-19T03:08:57;17.50;99.90
33741;DHT22;20065;48.380;10.892;2022-08-19T03:11:43;17.60;99.90
33741;DHT22;20065;48.380;10.892;2022-08-19T03:14:33;17.60;99.90
33741;DHT22;20065;48.380;10.892;2022-08-19T03:17:19;17.60;99.90
33741;DHT22;20065;48.380;10.892;2022-08-19T03:20:06;17.70;99.90
33741;DHT22;20065;48.380;10.892;2022-08-19T03:22:52;17.90;99.90
33741;DHT22;20065;48.380;10.892;2022-08-19T03:25:40;18.00;99.90
33741;DHT22;20065;48.380;10.892;2022-08-19T03:28:28;18.10;99.90
33741;DHT22;20065;48.380;10.892;2022-08-19T03:31:18;17.70;99.90
33741;DHT22;20065;48.380;10.892;2022-08-19T03:34:05;17.80;99.90
33741;DHT22;20065;48.380;10.892;2022-08-19T03:36:52;17.60;99.90
33741;DHT22;20065;48.380;10.892;2022-08-19T03:39:39;17.70;99.90
33741;DHT22;20065;48.380;10.892;2022-08-19T03:42:26;17.50;99.90
33741;DHT22;20065;48.380;10.892;2022-08-19T03:45:12;17.50;99.90
33741;DHT22;20065;48.380;10.892;2022-08-19T03:47:58;17.50;99.90
33741;DHT22;20065;48.380;10.892;2022-08-19T03:50:45;17.60;99.90
33741;DHT22;20065;48.380;10.892;2022-08-19T03:53:32;17.50;99.90
33741;DHT22;20065;48.380;10.892;2022-08-19T03:56:18;17.50;99.90
33741;DHT22;20065;48.380;10.892;2022-08-19T03:59:07;17.40;99.90
33741;DHT22;20065;48.380;10.892;2022-08-19T04:01:56;17.40;99.90
33741;DHT22;20065;48.380;10.892;2022-08-19T04:04:43;17.40;99.90
33741;DHT22;20065;48.380;10.892;2022-08-19T04:07:29;17.60;99.90
33741;DHT22;20065;48.380;10.892;2022-08-19T04:10:15;17.80;99.90
33741;DHT22;20065;48.380;10.892;2022-08-19T04:13:05;18.10;99.90
33741;DHT22;20065;48.380;10.892;2022-08-19T04:15:53;18.00;99.90
33741;DHT22;20065;48.380;10.892;2022-08-19T04:18:40;18.20;99.90
33741;DHT22;20065;48.380;10.892;2022-08-19T04:21:28;18.30;99.90
33741;DHT22;20065;48.380;10.892;2022-08-19T04:24:14;18.40;99.90
33741;DHT22;20065;48.380;10.892;2022-08-19T04:27:04;18.40;99.90
33741;DHT22;20065;48.380;10.892;2022-08-19T04:29:51;18.40;99.90
33741;DHT22;20065;48.380;10.892;2022-08-19T04:32:39;18.40;99.90
33741;DHT22;20065;48.380;10.892;2022-08-19T04:35:26;18.40;99.90
33741;DHT22;20065;48.380;10.892;2022-08-19T04:38:13;18.50;99.90
33741;DHT22;20065;48.380;10.892;2022-08-19T04:40:59;18.50;99.90
33741;DHT22;20065;48.380;10.892;2022-08-19T04:44:04;18.40;99.90
33741;DHT22;20065;48.380;10.892;2022-08-19T04:46:51;18.20;99.90
33741;DHT22;20065;48.380;10.892;2022-08-19T04:49:37;18.30;99.90
33741;DHT22;20065;48.380;10.892;2022-08-19T04:52:23;18.20;99.90
33741;DHT22;20065;48.380;10.892;2022-08-19T04:55:11;18.30;99.90
33741;DHT22;20065;48.380;10.892;2022-08-19T04:57:57;18.40;99.90
33741;DHT22;20065;48.380;10.892;2022-08-19T05:00:43;18.50;99.90
33741;DHT22;20065;48.380;10.892;2022-08-19T05:03:30;18.50;99.90
33741;DHT22;20065;48.380;10.892;2022-08-19T05:06:20;18.50;99.90
33741;DHT22;20065;48.380;10.892;2022-08-19T05:09:07;18.30;99.90
33741;DHT22;20065;48.380;10.892;2022-08-19T05:11:53;18.50;99.90
33741;DHT22;20065;48.380;10.892;2022-08-19T05:14:43;18.50;99.90
33741;DHT22;20065;48.380;10.892;2022-08-19T05:17:31;18.00;99.90
33741;DHT22;20065;48.380;10.892;2022-08-19T05:20:17;17.90;99.90
33741;DHT22;20065;48.380;10.892;2022-08-19T05:23:22;18.10;99.90
33741;DHT22;20065;48.380;10.892;2022-08-19T05:26:08;18.40;99.90
33741;DHT22;20065;48.380;10.892;2022-08-19T05:28:56;18.20;99.90
33741;DHT22;20065;48.380;10.892;2022-08-19T05:31:43;18.50;99.90
33741;DHT22;20065;48.380;10.892;2022-08-19T05:34:29;18.60;99.90
33741;DHT22;20065;48.380;10.892;2022-08-19T05:37:15;18.60;99.90
33741;DHT22;20065;48.380;10.892;2022-08-19T05:40:03;18.50;99.90
33741;DHT22;20065;48.380;10.892;2022-08-19T05:42:49;18.00;99.90
33741;DHT22;20065;48.380;10.892;2022-08-19T05:45:40;17.90;99.90
33741;DHT22;20065;48.380;10.892;2022-08-19T05:48:27;18.30;99.90
33741;DHT22;20065;48.380;10.892;2022-08-19T05:51:14;18.00;99.90
33741;DHT22;20065;48.380;10.892;2022-08-19T05:54:02;18.40;99.90
33741;DHT22;20065;48.380;10.892;2022-08-19T05:56:50;18.50;99.90
33741;DHT22;20065;48.380;10.892;2022-08-19T05:59:36;18.60;99.90
33741;DHT22;20065;48.380;10.892;2022-08-19T06:02:22;18.70;99.90
33741;DHT22;20065;48.380;10.892;2022-08-19T06:05:09;18.70;99.90
33741;DHT22;20065;48.380;10.892;2022-08-19T06:07:55;18.80;99.90
33741;DHT22;20065;48.380;10.892;2022-08-19T06:10:41;18.70;99.90
33741;DHT22;20065;48.380;10.892;2022-08-19T06:13:27;18.80;99.90
33741;DHT22;20065;48.380;10.892;2022-08-19T06:16:13;18.80;99.90
33741;DHT22;20065;48.380;10.892;2022-08-19T06:19:14;18.90;99.90
33741;DHT22;20065;48.380;10.892;2022-08-19T06:22:01;18.70;99.90
33741;DHT22;20065;48.380;10.892;2022-08-19T06:24:48;18.90;99.90
33741;DHT22;20065;48.380;10.892;2022-08-19T06:27:38;18.80;99.90
33741;DHT22;20065;48.380;10.892;2022-08-19T06:30:25;18.70;99.90
33741;DHT22;20065;48.380;10.892;2022-08-19T06:33:11;18.70;99.90
33741;DHT22;20065;48.380;10.892;2022-08-19T06:35:57;18.70;99.90
33741;DHT22;20065;48.380;10.892;2022-08-19T06:38:43;18.90;99.90
33741;DHT22;20065;48.380;10.892;2022-08-19T06:41:30;18.90;99.90
33741;DHT22;20065;48.380;10.892;2022-08-19T06:44:18;19.00;99.90
33741;DHT22;20065;48.380;10.892;2022-08-19T06:47:08;18.90;99.90
33741;DHT22;20065;48.380;10.892;2022-08-19T06:49:58;18.90;99.90
33741;DHT22;20065;48.380;10.892;2022-08-19T06:52:48;18.90;99.90
33741;DHT22;20065;48.380;10.892;2022-08-19T06:55:34;18.80;99.90
33741;DHT22;20065;48.380;10.892;2022-08-19T06:58:21;19.00;99.90
33741;DHT22;20065;48.380;10.892;2022-08-19T07:01:07;19.00;99.90
33741;DHT22;20065;48.380;10.892;2022-08-19T07:03:53;18.90;99.90
33741;DHT22;20065;48.380;10.892;2022-08-19T07:06:39;18.80;99.90
33741;DHT22;20065;48.380;10.892;2022-08-19T07:09:26;19.00;99.90
33741;DHT22;20065;48.380;10.892;2022-08-19T07:12:13;19.10;99.90
33741;DHT22;20065;48.380;10.892;2022-08-19T07:15:06;19.10;99.90
33741;DHT22;20065;48.380;10.892;2022-08-19T07:17:54;19.10;99.90
33741;DHT22;20065;48.380;10.892;2022-08-19T07:20:41;19.10;99.90
33741;DHT22;20065;48.380;10.892;2022-08-19T07:23:28;18.90;99.90
33741;DHT22;20065;48.380;10.892;2022-08-19T07:26:25;19.00;99.90
33741;DHT22;20065;48.380;10.892;2022-08-19T07:29:12;18.90;99.90
33741;DHT22;20065;48.380;10.892;2022-08-19T07:31:58;18.50;99.90
33741;DHT22;20065;48.380;10.892;2022-08-19T07:34:45;18.50;99.90
33741;DHT22;20065;48.380;10.892;2022-08-19T07:37:31;18.60;99.90
33741;DHT22;20065;48.380;10.892;2022-08-19T07:40:17;18.50;99.90
33741;DHT22;20065;48.380;10.892;2022-08-19T07:43:03;18.50;99.90
33741;DHT22;20065;48.380;10.892;2022-08-19T07:45:49;18.60;99.90
33741;DHT22;20065;48.380;10.892;2022-08-19T07:48:35;18.70;99.90
33741;DHT22;20065;48.380;10.892;2022-08-19T07:51:22;18.70;99.90
33741;DHT22;20065;48.380;10.892;2022-08-19T07:54:08;18.70;99.90
33741;DHT22;20065;48.380;10.892;2022-08-19T07:56:55;18.60;99.90
33741;DHT22;20065;48.380;10.892;2022-08-19T07:59:41;18.70;99.90
33741;DHT22;20065;48.380;10.892;2022-08-19T08:02:27;18.50;99.90
33741;DHT22;20065;48.380;10.892;2022-08-19T08:05:13;18.50;99.90
33741;DHT22;20065;48.380;10.892;2022-08-19T08:08:18;18.60;99.90
33741;DHT22;20065;48.380;10.892;2022-08-19T08:11:27;18.60;99.90
33741;DHT22;20065;48.380;10.892;2022-08-19T08:14:14;18.60;99.90
33741;DHT22;20065;48.380;10.892;2022-08-19T08:17:02;18.70;99.90
33741;DHT22;20065;48.380;10.892;2022-08-19T08:19:49;18.60;99.90
33741;DHT22;20065;48.380;10.892;2022-08-19T08:22:36;18.50;99.90
33741;DHT22;20065;48.380;10.892;2022-08-19T08:25:41;18.60;99.90
33741;DHT22;20065;48.380;10.892;2022-08-19T08:28:27;18.60;99.90
33741;DHT22;20065;48.380;10.892;2022-08-19T08:31:13;18.70;99.90
33741;DHT22;20065;48.380;10.892;2022-08-19T08:34:00;18.70;99.90
33741;DHT22;20065;48.380;10.892;2022-08-19T08:36:47;18.70;99.90
33741;DHT22;20065;48.380;10.892;2022-08-19T08:39:33;18.70;99.90
33741;DHT22;20065;48.380;10.892;2022-08-19T08:42:34;18.80;99.90
33741;DHT22;20065;48.380;10.892;2022-08-19T08:45:23;18.90;99.90
33741;DHT22;20065;48.380;10.892;2022-08-19T08:48:41;18.80;99.90
33741;DHT22;20065;48.380;10.892;2022-08-19T08:51:43;18.90;99.90
33741;DHT22;20065;48.380;10.892;2022-08-19T08:54:43;18.80;99.90
33741;DHT22;20065;48.380;10.892;2022-08-19T08:57:52;18.60;99.90
33741;DHT22;20065;48.380;10.892;2022-08-19T09:00:44;18.60;99.90
33741;DHT22;20065;48.380;10.892;2022-08-19T09:03:31;18.80;99.90
33741;DHT22;20065;48.380;10.892;2022-08-19T09:09:26;18.80;99.90
33741;DHT22;20065;48.380;10.892;2022-08-19T09:15:13;18.90;99.90
33741;DHT22;20065;48.380;10.892;2022-08-19T09:18:01;18.90;99.90
33741;DHT22;20065;48.380;10.892;2022-08-19T09:20:48;18.90;99.90
33741;DHT22;20065;48.380;10.892;2022-08-19T09:23:36;18.80;99.90
33741;DHT22;20065;48.380;10.892;2022-08-19T09:26:23;19.00;99.90
33741;DHT22;20065;48.380;10.892;2022-08-19T09:29:10;19.20;99.90
33741;DHT22;20065;48.380;10.892;2022-08-19T09:31:56;19.00;99.90
33741;DHT22;20065;48.380;10.892;2022-08-19T09:34:42;19.00;99.90
33741;DHT22;20065;48.380;10.892;2022-08-19T09:37:29;19.00;99.90
33741;DHT22;20065;48.380;10.892;2022-08-19T09:40:15;19.10;99.90
33741;DHT22;20065;48.380;10.892;2022-08-19T09:43:02;18.90;99.90
33741;DHT22;20065;48.380;10.892;2022-08-19T09:45:48;19.00;99.90
33741;DHT22;20065;48.380;10.892;2022-08-19T09:48:35;18.90;99.90
33741;DHT22;20065;48.380;10.892;2022-08-19T09:51:23;19.00;99.90
33741;DHT22;20065;48.380;10.892;2022-08-19T09:54:09;19.60;99.90
33741;DHT22;20065;48.380;10.892;2022-08-19T09:56:58;18.80;99.90
33741;DHT22;20065;48.380;10.892;2022-08-19T09:59:46;18.90;99.90
33741;DHT22;20065;48.380;10.892;2022-08-19T10:02:32;18.80;99.90
33741;DHT22;20065;48.380;10.892;2022-08-19T10:05:18;18.80;99.90
33741;DHT22;20065;48.380;10.892;2022-08-19T10:08:25;18.70;99.90
33741;DHT22;20065;48.380;10.892;2022-08-19T10:11:11;18.70;99.90
33741;DHT22;20065;48.380;10.892;2022-08-19T10:14:01;18.50;99.90
33741;DHT22;20065;48.380;10.892;2022-08-19T10:16:47;18.60;99.90
33741;DHT22;20065;48.380;10.892;2022-08-19T10:19:33;18.70;99.90
33741;DHT22;20065;48.380;10.892;2022-08-19T10:22:22;18.50;99.90
33741;DHT22;20065;48.380;10.892;2022-08-19T10:25:08;18.40;99.90
33741;DHT22;20065;48.380;10.892;2022-08-19T10:27:54;18.50;99.90
33741;DHT22;20065;48.380;10.892;2022-08-19T10:30:40;18.40;99.90
33741;DHT22;20065;48.380;10.892;2022-08-19T10:33:27;18.20;99.90
33741;DHT22;20065;48.380;10.892;2022-08-19T10:36:16;18.20;99.90
33741;DHT22;20065;48.380;10.892;2022-08-19T10:39:08;18.20;99.90
33741;DHT22;20065;48.380;10.892;2022-08-19T10:41:55;18.20;99.90
33741;DHT22;20065;48.380;10.892;2022-08-19T10:44:42;18.30;99.90
33741;DHT22;20065;48.380;10.892;2022-08-19T10:47:28;18.20;99.90
33741;DHT22;20065;48.380;10.892;2022-08-19T10:50:14;18.30;99.90
33741;DHT22;20065;48.380;10.892;2022-08-19T10:53:19;18.30;99.90
33741;DHT22;20065;48.380;10.892;2022-08-19T10:56:09;18.20;99.90
33741;DHT22;20065;48.380;10.892;2022-08-19T10:59:15;18.20;99.90
33741;DHT22;20065;48.380;10.892;2022-08-19T11:02:03;18.00;99.90
33741;DHT22;20065;48.380;10.892;2022-08-19T11:04:50;17.70;99.90
33741;DHT22;20065;48.380;10.892;2022-08-19T11:07:39;17.50;99.90
33741;DHT22;20065;48.380;10.892;2022-08-19T11:10:25;17.20;99.90
33741;DHT22;20065;48.380;10.892;2022-08-19T11:13:18;17.10;99.90
33741;DHT22;20065;48.380;10.892;2022-08-19T11:16:15;17.10;99.90
33741;DHT22;20065;48.380;10.892;2022-08-19T11:19:05;17.10;99.90
33741;DHT22;20065;48.380;10.892;2022-08-19T11:21:53;17.10;99.90
33741;DHT22;20065;48.380;10.892;2022-08-19T11:24:40;17.20;99.90
33741;DHT22;20065;48.380;10.892;2022-08-19T11:27:41;17.40;99.90
33741;DHT22;20065;48.380;10.892;2022-08-19T11:30:28;17.70;99.90
33741;DHT22;20065;48.380;10.892;2022-08-19T11:33:16;17.60;99.90
33741;DHT22;20065;48.380;10.892;2022-08-19T11:36:07;17.70;99.90
33741;DHT22;20065;48.380;10.892;2022-08-19T11:38:56;17.70;99.90
33741;DHT22;20065;48.380;10.892;2022-08-19T11:41:46;17.50;99.90
33741;DHT22;20065;48.380;10.892;2022-08-19T11:44:33;17.40;99.90
33741;DHT22;20065;48.380;10.892;2022-08-19T11:47:19;17.30;99.90
33741;DHT22;20065;48.380;10.892;2022-08-19T11:50:06;17.30;99.90
33741;DHT22;20065;48.380;10.892;2022-08-19T11:52:56;16.80;99.90
33741;DHT22;20065;48.380;10.892;2022-08-19T11:55:42;17.10;99.90
33741;DHT22;20065;48.380;10.892;2022-08-19T11:58:29;17.40;99.90
33741;DHT22;20065;48.380;10.892;2022-08-19T12:01:18;17.40;99.90
33741;DHT22;20065;48.380;10.892;2022-08-19T12:04:05;17.60;99.90
33741;DHT22;20065;48.380;10.892;2022-08-19T12:06:51;17.60;99.90
33741;DHT22;20065;48.380;10.892;2022-08-19T12:09:38;17.50;99.90
33741;DHT22;20065;48.380;10.892;2022-08-19T12:12:25;17.50;99.90
33741;DHT22;20065;48.380;10.892;2022-08-19T12:15:13;17.50;99.90
33741;DHT22;20065;48.380;10.892;2022-08-19T12:18:00;17.40;99.90
33741;DHT22;20065;48.380;10.892;2022-08-19T12:20:46;17.60;99.90
33741;DHT22;20065;48.380;10.892;2022-08-19T12:23:33;17.40;99.90
33741;DHT22;20065;48.380;10.892;2022-08-19T12:26:19;17.50;99.90
33741;DHT22;20065;48.380;10.892;2022-08-19T12:29:05;17.40;99.90
33741;DHT22;20065;48.380;10.892;2022-08-19T12:31:54;17.40;99.90
33741;DHT22;20065;48.380;10.892;2022-08-19T12:34:47;17.50;99.90
33741;DHT22;20065;48.380;10.892;2022-08-19T12:37:33;17.50;99.90
33741;DHT22;20065;48.380;10.892;2022-08-19T12:40:20;17.70;99.90
33741;DHT22;20065;48.380;10.892;2022-08-19T12:43:06;17.60;99.90
33741;DHT22;20065;48.380;10.892;2022-08-19T12:45:53;17.60;99.90
33741;DHT22;20065;48.380;10.892;2022-08-19T12:48:39;17.70;99.90
33741;DHT22;20065;48.380;10.892;2022-08-19T12:51:28;17.70;99.90
33741;DHT22;20065;48.380;10.892;2022-08-19T12:54:14;17.70;99.90
33741;DHT22;20065;48.380;10.892;2022-08-19T12:57:04;17.60;99.90
33741;DHT22;20065;48.380;10.892;2022-08-19T12:59:54;17.70;99.90
33741;DHT22;20065;48.380;10.892;2022-08-19T13:02:43;17.90;99.90
33741;DHT22;20065;48.380;10.892;2022-08-19T13:05:31;17.80;99.90
33741;DHT22;20065;48.380;10.892;2022-08-19T13:08:19;18.00;99.90
33741;DHT22;20065;48.380;10.892;2022-08-19T13:11:17;17.90;99.90
33741;DHT22;20065;48.380;10.892;2022-08-19T13:14:04;18.00;99.90
33741;DHT22;20065;48.380;10.892;2022-08-19T13:16:51;18.00;99.90
33741;DHT22;20065;48.380;10.892;2022-08-19T13:19:37;18.00;99.90
33741;DHT22;20065;48.380;10.892;2022-08-19T13:22:23;18.10;99.90
33741;DHT22;20065;48.380;10.892;2022-08-19T13:25:12;18.10;99.90
33741;DHT22;20065;48.380;10.892;2022-08-19T13:27:59;18.00;99.90
33741;DHT22;20065;48.380;10.892;2022-08-19T13:30:47;17.90;99.90
33741;DHT22;20065;48.380;10.892;2022-08-19T13:33:52;17.90;99.90
33741;DHT22;20065;48.380;10.892;2022-08-19T13:36:39;18.00;99.90
33741;DHT22;20065;48.380;10.892;2022-08-19T13:39:26;18.10;99.90
33741;DHT22;20065;48.380;10.892;2022-08-19T13:42:13;18.00;99.90
33741;DHT22;20065;48.380;10.892;2022-08-19T13:45:00;18.00;99.90
33741;DHT22;20065;48.380;10.892;2022-08-19T13:47:47;18.10;99.90
33741;DHT22;20065;48.380;10.892;2022-08-19T13:50:40;18.20;99.90
33741;DHT22;20065;48.380;10.892;2022-08-19T13:53:27;18.10;99.90
33741;DHT22;20065;48.380;10.892;2022-08-19T13:56:15;17.90;99.90
33741;DHT22;20065;48.380;10.892;2022-08-19T13:59:02;18.00;99.90
33741;DHT22;20065;48.380;10.892;2022-08-19T14:01:48;18.00;99.90
33741;DHT22;20065;48.380;10.892;2022-08-19T14:04:35;17.90;99.90
33741;DHT22;20065;48.380;10.892;2022-08-19T14:07:23;18.00;99.90
33741;DHT22;20065;48.380;10.892;2022-08-19T14:10:12;17.90;99.90
33741;DHT22;20065;48.380;10.892;2022-08-19T14:13:00;17.80;99.90
33741;DHT22;20065;48.380;10.892;2022-08-19T14:15:47;17.80;99.90
33741;DHT22;20065;48.380;10.892;2022-08-19T14:18:33;17.90;99.90
33741;DHT22;20065;48.380;10.892;2022-08-19T14:21:23;17.80;99.90
33741;DHT22;20065;48.380;10.892;2022-08-19T14:24:10;17.80;99.90
33741;DHT22;20065;48.380;10.892;2022-08-19T14:26:58;17.80;99.90
33741;DHT22;20065;48.380;10.892;2022-08-19T14:29:44;18.00;99.90
33741;DHT22;20065;48.380;10.892;2022-08-19T14:32:34;17.90;99.90
33741;DHT22;20065;48.380;10.892;2022-08-19T14:35:21;18.00;99.90
33741;DHT22;20065;48.380;10.892;2022-08-19T14:38:15;17.90;99.90
33741;DHT22;20065;48.380;10.892;2022-08-19T14:41:14;18.00;99.90
33741;DHT22;20065;48.380;10.892;2022-08-19T14:44:02;17.90;99.90
33741;DHT22;20065;48.380;10.892;2022-08-19T14:46:48;17.90;99.90
33741;DHT22;20065;48.380;10.892;2022-08-19T14:49:36;18.10;99.90
33741;DHT22;20065;48.380;10.892;2022-08-19T14:52:22;18.00;99.90
33741;DHT22;20065;48.380;10.892;2022-08-19T14:55:09;17.90;99.90
33741;DHT22;20065;48.380;10.892;2022-08-19T14:57:55;18.00;99.90
33741;DHT22;20065;48.380;10.892;2022-08-19T15:00:42;17.90;99.90
33741;DHT22;20065;48.380;10.892;2022-08-19T15:03:29;18.10;99.90
33741;DHT22;20065;48.380;10.892;2022-08-19T15:06:17;18.10;99.90
33741;DHT22;20065;48.380;10.892;2022-08-19T15:09:12;18.10;99.90
33741;DHT22;20065;48.380;10.892;2022-08-19T15:12:02;17.90;99.90
33741;DHT22;20065;48.380;10.892;2022-08-19T15:14:48;18.00;99.90
33741;DHT22;20065;48.380;10.892;2022-08-19T15:17:36;18.00;99.90
33741;DHT22;20065;48.380;10.892;2022-08-19T15:20:23;17.90;99.90
33741;DHT22;20065;48.380;10.892;2022-08-19T15:23:10;18.00;99.90
33741;DHT22;20065;48.380;10.892;2022-08-19T15:25:56;18.00;99.90
33741;DHT22;20065;48.380;10.892;2022-08-19T15:28:43;17.90;99.90
33741;DHT22;20065;48.380;10.892;2022-08-19T15:31:30;17.90;99.90
33741;DHT22;20065;48.380;10.892;2022-08-19T15:34:22;17.90;99.90
33741;DHT22;20065;48.380;10.892;2022-08-19T15:37:08;17.90;99.90
33741;DHT22;20065;48.380;10.892;2022-08-19T15:39:55;18.00;99.90
33741;DHT22;20065;48.380;10.892;2022-08-19T15:42:41;18.00;99.90
33741;DHT22;20065;48.380;10.892;2022-08-19T15:45:29;18.10;99.90
33741;DHT22;20065;48.380;10.892;2022-08-19T15:48:19;18.10;99.90
33741;DHT22;20065;48.380;10.892;2022-08-19T15:51:05;18.20;99.90
33741;DHT22;20065;48.380;10.892;2022-08-19T15:53:51;18.20;99.90
33741;DHT22;20065;48.380;10.892;2022-08-19T15:56:38;18.10;99.90
33741;DHT22;20065;48.380;10.892;2022-08-19T15:59:50;18.10;99.90
33741;DHT22;20065;48.380;10.892;2022-08-19T16:02:56;18.10;99.90
33741;DHT22;20065;48.380;10.892;2022-08-19T16:06:01;17.90;99.90
33741;DHT22;20065;48.380;10.892;2022-08-19T16:09:05;17.90;99.90
33741;DHT22;20065;48.380;10.892;2022-08-19T16:11:52;18.10;99.90
33741;DHT22;20065;48.380;10.892;2022-08-19T16:14:38;18.00;99.90
33741;DHT22;20065;48.380;10.892;2022-08-19T16:17:24;18.10;99.90
33741;DHT22;20065;48.380;10.892;2022-08-19T16:20:10;18.10;99.90
33741;DHT22;20065;48.380;10.892;2022-08-19T16:23:06;18.00;99.90
33741;DHT22;20065;48.380;10.892;2022-08-19T16:25:52;18.00;99.90
33741;DHT22;20065;48.380;10.892;2022-08-19T16:28:39;18.00;99.90
33741;DHT22;20065;48.380;10.892;2022-08-19T16:31:25;18.10;99.90
33741;DHT22;20065;48.380;10.892;2022-08-19T16:34:13;18.00;99.90
33741;DHT22;20065;48.380;10.892;2022-08-19T16:36:59;17.90;99.90
33741;DHT22;20065;48.380;10.892;2022-08-19T16:39:45;18.00;99.90
33741;DHT22;20065;48.380;10.892;2022-08-19T16:42:32;18.00;99.90
33741;DHT22;20065;48.380;10.892;2022-08-19T16:45:18;18.00;99.90
33741;DHT22;20065;48.380;10.892;2022-08-19T16:48:06;18.10;99.90
33741;DHT22;20065;48.380;10.892;2022-08-19T16:50:53;18.10;99.90
33741;DHT22;20065;48.380;10.892;2022-08-19T16:53:41;18.10;99.90
33741;DHT22;20065;48.380;10.892;2022-08-19T16:56:30;18.10;99.90
33741;DHT22;20065;48.380;10.892;2022-08-19T16:59:16;18.10;99.90
33741;DHT22;20065;48.380;10.892;2022-08-19T17:02:02;18.10;99.90
33741;DHT22;20065;48.380;10.892;2022-08-19T17:04:50;18.00;99.90
33741;DHT22;20065;48.380;10.892;2022-08-19T17:07:36;18.00;99.90
33741;DHT22;20065;48.380;10.892;2022-08-19T17:10:23;18.00;99.90
33741;DHT22;20065;48.380;10.892;2022-08-19T17:13:09;18.00;99.90
33741;DHT22;20065;48.380;10.892;2022-08-19T17:15:56;17.90;99.90
33741;DHT22;20065;48.380;10.892;2022-08-19T17:18:43;17.80;99.90
33741;DHT22;20065;48.380;10.892;2022-08-19T17:21:31;17.70;99.90
33741;DHT22;20065;48.380;10.892;2022-08-19T17:24:18;17.80;99.90
33741;DHT22;20065;48.380;10.892;2022-08-19T17:27:04;17.80;99.90
33741;DHT22;20065;48.380;10.892;2022-08-19T17:29:50;17.50;99.90
33741;DHT22;20065;48.380;10.892;2022-08-19T17:32:37;17.50;99.90
33741;DHT22;20065;48.380;10.892;2022-08-19T17:35:24;17.50;99.90